Terminal Aerodrome Forecast
Issued by NWS

Home | Current Version | Previous Version | Graphics & Text | Print | Product List | Glossary On
Versions: 1 2 3 4 5 6 7 8 9 10 11 12 13 14 15 16 17
000
FTUS43 KMPX 300500
TAFRWF
TAF
KRWF 300534Z 3006/0106 10009KT P6SM SCT010
      TEMPO 3008/3010 5SM BR BKN010
     FM301000 11009KT P6SM OVC010
     FM301500 13012G19KT P6SM SCT015 SCT070
     FM301900 13014G21KT P6SM SCT030 BKN050
     FM302100 14015G23KT 6SM -RA BR SCT025 BKN040
      TEMPO 0100/0104 4SM -RA BR SCT020 BKN030
     FM010400 15012KT P6SM SCT030 BKN050=

USA.gov is the U.S. government's official web portal to all federal, state and local government web resources and services.